sensor_id;sensor_type;location;lat;lon;timestamp;pressure;altitude;pressure_sealevel;temperature;humidity
28306;BME280;7516;43.570;1.448;2023-01-23T00:01:12;100788.59;;;1.02;100.00
28306;BME280;7516;43.570;1.448;2023-01-23T00:03:41;100787.75;;;1.01;100.00
28306;BME280;7516;43.570;1.448;2023-01-23T00:06:12;100783.44;;;1.02;100.00
28306;BME280;7516;43.570;1.448;2023-01-23T00:08:40;100786.94;;;1.01;100.00
28306;BME280;7516;43.570;1.448;2023-01-23T00:11:10;100781.75;;;1.01;100.00
28306;BME280;7516;43.570;1.448;2023-01-23T00:13:37;100779.94;;;1.03;100.00
28306;BME280;7516;43.570;1.448;2023-01-23T00:16:05;100781.59;;;1.04;100.00
28306;BME280;7516;43.570;1.448;2023-01-23T00:18:33;100782.69;;;1.00;100.00
28306;BME280;7516;43.570;1.448;2023-01-23T00:21:05;100785.25;;;1.00;100.00
28306;BME280;7516;43.570;1.448;2023-01-23T00:23:33;100796.34;;;1.02;100.00
28306;BME280;7516;43.570;1.448;2023-01-23T00:26:02;100784.19;;;1.04;100.00
28306;BME280;7516;43.570;1.448;2023-01-23T00:28:30;100779.94;;;1.03;100.00
28306;BME280;7516;43.570;1.448;2023-01-23T00:31:03;100787.69;;;1.03;100.00
28306;BME280;7516;43.570;1.448;2023-01-23T00:33:30;100789.41;;;1.02;100.00
28306;BME280;7516;43.570;1.448;2023-01-23T00:35:58;100782.44;;;1.04;100.00
28306;BME280;7516;43.570;1.448;2023-01-23T00:38:27;100795.06;;;1.09;100.00
28306;BME280;7516;43.570;1.448;2023-01-23T00:40:55;100791.75;;;1.07;100.00
28306;BME280;7516;43.570;1.448;2023-01-23T00:43:23;100796.16;;;1.05;100.00
28306;BME280;7516;43.570;1.448;2023-01-23T00:45:50;100789.50;;;1.01;100.00
28306;BME280;7516;43.570;1.448;2023-01-23T00:48:18;100794.66;;;1.01;100.00
28306;BME280;7516;43.570;1.448;2023-01-23T00:50:46;100785.66;;;1.08;100.00
28306;BME280;7516;43.570;1.448;2023-01-23T00:53:14;100801.16;;;1.08;100.00
28306;BME280;7516;43.570;1.448;2023-01-23T00:55:43;100801.91;;;1.10;100.00
28306;BME280;7516;43.570;1.448;2023-01-23T00:58:10;100798.56;;;1.08;100.00
28306;BME280;7516;43.570;1.448;2023-01-23T01:00:38;100789.84;;;1.10;100.00
28306;BME280;7516;43.570;1.448;2023-01-23T01:03:06;100795.91;;;1.09;100.00
28306;BME280;7516;43.570;1.448;2023-01-23T01:05:34;100794.84;;;1.13;100.00
28306;BME280;7516;43.570;1.448;2023-01-23T01:08:02;100797.31;;;1.15;100.00
28306;BME280;7516;43.570;1.448;2023-01-23T01:10:30;100796.56;;;1.13;100.00
28306;BME280;7516;43.570;1.448;2023-01-23T01:13:01;100789.84;;;1.10;100.00
28306;BME280;7516;43.570;1.448;2023-01-23T01:15:29;100783.34;;;1.03;100.00
28306;BME280;7516;43.570;1.448;2023-01-23T01:17:57;100783.28;;;1.05;100.00
28306;BME280;7516;43.570;1.448;2023-01-23T01:20:26;100777.91;;;1.08;100.00
28306;BME280;7516;43.570;1.448;2023-01-23T01:22:55;100789.75;;;1.12;100.00
28306;BME280;7516;43.570;1.448;2023-01-23T01:25:24;100781.25;;;1.10;100.00
28306;BME280;7516;43.570;1.448;2023-01-23T01:27:51;100789.84;;;1.10;100.00
28306;BME280;7516;43.570;1.448;2023-01-23T01:30:20;100785.66;;;1.08;100.00
28306;BME280;7516;43.570;1.448;2023-01-23T01:32:48;100795.06;;;1.09;100.00
28306;BME280;7516;43.570;1.448;2023-01-23T01:35:16;100783.91;;;1.08;100.00
28306;BME280;7516;43.570;1.448;2023-01-23T01:37:43;100783.00;;;1.09;100.00
28306;BME280;7516;43.570;1.448;2023-01-23T01:40:13;100793.41;;;1.08;100.00
28306;BME280;7516;43.570;1.448;2023-01-23T01:42:42;100791.16;;;1.02;100.00
28306;BME280;7516;43.570;1.448;2023-01-23T01:48:13;100792.09;;;1.01;100.00
28306;BME280;7516;43.570;1.448;2023-01-23T01:50:41;100793.41;;;1.08;100.00
28306;BME280;7516;43.570;1.448;2023-01-23T01:53:09;100799.41;;;1.08;100.00
28306;BME280;7516;43.570;1.448;2023-01-23T01:55:37;100798.47;;;1.09;100.00
28306;BME280;7516;43.570;1.448;2023-01-23T01:58:05;100793.25;;;1.11;100.00
28306;BME280;7516;43.570;1.448;2023-01-23T02:00:33;100791.66;;;1.08;100.00
28306;BME280;7516;43.570;1.448;2023-01-23T02:03:02;100792.75;;;1.04;100.00
28306;BME280;7516;43.570;1.448;2023-01-23T02:05:33;100797.91;;;1.04;100.00
28306;BME280;7516;43.570;1.448;2023-01-23T02:08:05;100799.91;;;0.99;100.00
28306;BME280;7516;43.570;1.448;2023-01-23T02:10:36;100806.72;;;1.00;100.00
28306;BME280;7516;43.570;1.448;2023-01-23T02:13:20;100800.56;;;1.03;100.00
28306;BME280;7516;43.570;1.448;2023-01-23T02:15:48;100802.97;;;1.06;100.00
28306;BME280;7516;43.570;1.448;2023-01-23T02:18:16;100803.72;;;1.08;100.00
28306;BME280;7516;43.570;1.448;2023-01-23T02:20:46;100809.06;;;1.05;100.00
28306;BME280;7516;43.570;1.448;2023-01-23T02:23:20;100809.06;;;1.05;100.00
28306;BME280;7516;43.570;1.448;2023-01-23T02:25:55;100805.06;;;0.99;100.00
28306;BME280;7516;43.570;1.448;2023-01-23T02:28:36;100799.81;;;1.01;100.00
28306;BME280;7516;43.570;1.448;2023-01-23T02:31:05;100797.25;;;1.01;100.00
28306;BME280;7516;43.570;1.448;2023-01-23T02:33:45;100793.06;;;0.98;100.00
28306;BME280;7516;43.570;1.448;2023-01-23T02:36:13;100793.50;;;0.91;100.00
28306;BME280;7516;43.570;1.448;2023-01-23T02:38:46;100795.25;;;0.90;100.00
28306;BME280;7516;43.570;1.448;2023-01-23T02:41:20;100795.16;;;0.92;100.00
28306;BME280;7516;43.570;1.448;2023-01-23T02:43:50;100790.91;;;0.91;100.00
28306;BME280;7516;43.570;1.448;2023-01-23T02:46:17;100800.25;;;0.93;100.00
28306;BME280;7516;43.570;1.448;2023-01-23T02:48:46;100792.25;;;0.98;100.00
28306;BME280;7516;43.570;1.448;2023-01-23T02:51:14;100793.91;;;0.99;100.00
28306;BME280;7516;43.570;1.448;2023-01-23T02:53:43;100789.66;;;0.98;100.00
28306;BME280;7516;43.570;1.448;2023-01-23T02:56:10;100782.94;;;0.95;100.00
28306;BME280;7516;43.570;1.448;2023-01-23T02:58:39;100791.53;;;0.96;100.00
28306;BME280;7516;43.570;1.448;2023-01-23T03:01:25;100783.03;;;0.94;100.00
28306;BME280;7516;43.570;1.448;2023-01-23T03:03:53;100777.09;;;0.92;100.00
28306;BME280;7516;43.570;1.448;2023-01-23T03:06:22;100782.09;;;0.95;100.00
28306;BME280;7516;43.570;1.448;2023-01-23T03:08:50;100778.78;;;0.93;100.00
28306;BME280;7516;43.570;1.448;2023-01-23T03:11:18;100768.63;;;0.90;100.00
28306;BME280;7516;43.570;1.448;2023-01-23T03:13:47;100780.59;;;0.91;100.00
28306;BME280;7516;43.570;1.448;2023-01-23T03:16:15;100780.44;;;0.94;100.00
28306;BME280;7516;43.570;1.448;2023-01-23T03:18:42;100783.03;;;0.94;100.00
28306;BME280;7516;43.570;1.448;2023-01-23T03:21:10;100782.09;;;0.95;100.00
28306;BME280;7516;43.570;1.448;2023-01-23T03:23:39;100788.94;;;0.96;100.00
28306;BME280;7516;43.570;1.448;2023-01-23T03:26:09;100791.53;;;0.96;100.00
28306;BME280;7516;43.570;1.448;2023-01-23T03:28:37;100786.50;;;0.93;100.00
28306;BME280;7516;43.570;1.448;2023-01-23T03:31:23;100781.91;;;0.98;100.00
28306;BME280;7516;43.570;1.448;2023-01-23T03:33:50;100790.06;;;1.06;100.00
28306;BME280;7516;43.570;1.448;2023-01-23T03:36:18;100786.75;;;1.04;100.00
28306;BME280;7516;43.570;1.448;2023-01-23T03:38:46;100781.59;;;1.04;100.00
28306;BME280;7516;43.570;1.448;2023-01-23T03:41:27;100782.44;;;1.04;100.00
28306;BME280;7516;43.570;1.448;2023-01-23T03:43:55;100780.50;;;1.08;100.00
28306;BME280;7516;43.570;1.448;2023-01-23T03:46:24;100780.03;;;1.01;100.00
28306;BME280;7516;43.570;1.448;2023-01-23T03:48:52;100773.47;;;0.96;100.00
28306;BME280;7516;43.570;1.448;2023-01-23T03:51:20;100776.94;;;0.95;100.00
28306;BME280;7516;43.570;1.448;2023-01-23T03:53:47;100778.63;;;0.96;100.00
28306;BME280;7516;43.570;1.448;2023-01-23T03:56:15;100768.47;;;0.93;100.00
28306;BME280;7516;43.570;1.448;2023-01-23T03:58:42;100767.63;;;0.92;100.00
28306;BME280;7516;43.570;1.448;2023-01-23T04:01:10;100769.38;;;0.92;100.00
28306;BME280;7516;43.570;1.448;2023-01-23T04:03:40;100764.13;;;0.93;100.00
28306;BME280;7516;43.570;1.448;2023-01-23T04:06:07;100770.13;;;0.94;100.00
28306;BME280;7516;43.570;1.448;2023-01-23T04:08:35;100765.88;;;0.93;100.00
28306;BME280;7516;43.570;1.448;2023-01-23T04:11:04;100762.38;;;0.94;100.00
28306;BME280;7516;43.570;1.448;2023-01-23T04:13:32;100778.63;;;0.96;100.00
28306;BME280;7516;43.570;1.448;2023-01-23T04:16:00;100762.31;;;0.95;100.00
28306;BME280;7516;43.570;1.448;2023-01-23T04:18:27;100762.13;;;0.98;100.00
28306;BME280;7516;43.570;1.448;2023-01-23T04:20:57;100757.63;;;1.02;100.00
28306;BME280;7516;43.570;1.448;2023-01-23T04:23:26;100750.72;;;1.02;100.00
28306;BME280;7516;43.570;1.448;2023-01-23T04:25:53;100746.63;;;0.98;100.00
28306;BME280;7516;43.570;1.448;2023-01-23T04:28:21;100750.25;;;0.96;100.00
28306;BME280;7516;43.570;1.448;2023-01-23T04:30:49;100754.44;;;0.97;100.00
28306;BME280;7516;43.570;1.448;2023-01-23T04:33:17;100751.16;;;0.95;100.00
28306;BME280;7516;43.570;1.448;2023-01-23T04:35:55;100741.16;;;0.89;100.00
28306;BME280;7516;43.570;1.448;2023-01-23T04:38:23;100739.50;;;0.88;100.00
28306;BME280;7516;43.570;1.448;2023-01-23T04:40:52;100736.00;;;0.89;100.00
28306;BME280;7516;43.570;1.448;2023-01-23T04:43:19;100734.16;;;0.91;100.00
28306;BME280;7516;43.570;1.448;2023-01-23T04:45:49;100721.09;;;0.94;100.00
28306;BME280;7516;43.570;1.448;2023-01-23T04:48:17;100726.34;;;0.92;100.00
28306;BME280;7516;43.570;1.448;2023-01-23T04:50:45;100723.84;;;0.91;100.00
28306;BME280;7516;43.570;1.448;2023-01-23T04:53:13;100712.63;;;0.92;100.00
28306;BME280;7516;43.570;1.448;2023-01-23T04:55:41;100704.78;;;0.93;100.00
28306;BME280;7516;43.570;1.448;2023-01-23T04:58:09;100692.88;;;0.91;100.00
28306;BME280;7516;43.570;1.448;2023-01-23T05:00:37;100697.22;;;0.90;100.00
28306;BME280;7516;43.570;1.448;2023-01-23T05:03:05;100687.81;;;0.89;100.00
28306;BME280;7516;43.570;1.448;2023-01-23T05:05:32;100688.66;;;0.90;100.00
28306;BME280;7516;43.570;1.448;2023-01-23T05:08:00;100687.50;;;0.95;100.00
28306;BME280;7516;43.570;1.448;2023-01-23T05:10:29;100689.41;;;0.92;100.00
28306;BME280;7516;43.570;1.448;2023-01-23T05:12:56;100691.22;;;0.90;100.00
28306;BME280;7516;43.570;1.448;2023-01-23T05:15:24;100684.25;;;0.92;100.00
28306;BME280;7516;43.570;1.448;2023-01-23T05:17:51;100693.09;;;0.88;100.00
28306;BME280;7516;43.570;1.448;2023-01-23T05:20:19;100699.47;;;0.81;100.00
28306;BME280;7516;43.570;1.448;2023-01-23T05:22:48;100693.25;;;0.85;100.00
28306;BME280;7516;43.570;1.448;2023-01-23T05:25:20;100710.19;;;0.89;100.00
28306;BME280;7516;43.570;1.448;2023-01-23T05:27:50;100703.56;;;0.85;100.00
28306;BME280;7516;43.570;1.448;2023-01-23T05:30:20;100707.13;;;0.82;100.00
28306;BME280;7516;43.570;1.448;2023-01-23T05:32:48;100705.53;;;0.80;100.00
28306;BME280;7516;43.570;1.448;2023-01-23T05:35:16;100712.38;;;0.81;100.00
28306;BME280;7516;43.570;1.448;2023-01-23T05:37:48;100707.22;;;0.81;100.00
28306;BME280;7516;43.570;1.448;2023-01-23T05:40:17;100715.06;;;0.79;100.00
28306;BME280;7516;43.570;1.448;2023-01-23T05:42:45;100709.91;;;0.79;100.00
28306;BME280;7516;43.570;1.448;2023-01-23T05:45:14;100715.78;;;0.81;100.00
28306;BME280;7516;43.570;1.448;2023-01-23T05:47:42;100724.53;;;0.79;100.00
28306;BME280;7516;43.570;1.448;2023-01-23T05:50:14;100731.34;;;0.80;100.00
28306;BME280;7516;43.570;1.448;2023-01-23T05:52:42;100721.03;;;0.80;100.00
28306;BME280;7516;43.570;1.448;2023-01-23T05:55:10;100719.47;;;0.77;100.00
28306;BME280;7516;43.570;1.448;2023-01-23T05:57:38;100717.88;;;0.74;100.00
28306;BME280;7516;43.570;1.448;2023-01-23T06:00:07;100721.22;;;0.77;100.00
28306;BME280;7516;43.570;1.448;2023-01-23T06:02:39;100730.03;;;0.72;100.00
28306;BME280;7516;43.570;1.448;2023-01-23T06:05:07;100724.72;;;0.75;100.00
28306;BME280;7516;43.570;1.448;2023-01-23T06:07:34;100731.69;;;0.73;100.00
28306;BME280;7516;43.570;1.448;2023-01-23T06:10:03;100732.59;;;0.72;100.00
28306;BME280;7516;43.570;1.448;2023-01-23T06:12:31;100732.59;;;0.72;100.00
28306;BME280;7516;43.570;1.448;2023-01-23T06:14:58;100725.06;;;0.69;100.00
28306;BME280;7516;43.570;1.448;2023-01-23T06:17:26;100733.34;;;0.74;100.00
28306;BME280;7516;43.570;1.448;2023-01-23T06:19:55;100735.78;;;0.78;100.00
28306;BME280;7516;43.570;1.448;2023-01-23T06:22:23;100733.00;;;0.81;100.00
28306;BME280;7516;43.570;1.448;2023-01-23T06:24:51;100735.50;;;0.82;100.00
28306;BME280;7516;43.570;1.448;2023-01-23T06:27:18;100746.81;;;0.80;100.00
28306;BME280;7516;43.570;1.448;2023-01-23T06:29:46;100743.44;;;0.79;100.00
28306;BME280;7516;43.570;1.448;2023-01-23T06:32:14;100755.22;;;0.83;100.00
28306;BME280;7516;43.570;1.448;2023-01-23T06:34:41;100754.56;;;0.80;100.00
28306;BME280;7516;43.570;1.448;2023-01-23T06:37:10;100748.59;;;0.79;100.00
28306;BME280;7516;43.570;1.448;2023-01-23T06:39:38;100724.78;;;0.74;100.00
28306;BME280;7516;43.570;1.448;2023-01-23T06:42:05;100719.38;;;0.79;100.00
28306;BME280;7516;43.570;1.448;2023-01-23T06:44:35;100721.84;;;0.80;100.00
28306;BME280;7516;43.570;1.448;2023-01-23T06:47:03;100714.22;;;0.79;100.00
28306;BME280;7516;43.570;1.448;2023-01-23T06:49:30;100704.81;;;0.78;100.00
28306;BME280;7516;43.570;1.448;2023-01-23T06:51:58;100720.94;;;0.81;100.00
28306;BME280;7516;43.570;1.448;2023-01-23T06:54:27;100717.66;;;0.79;100.00
28306;BME280;7516;43.570;1.448;2023-01-23T06:56:54;100722.88;;;0.78;100.00
28306;BME280;7516;43.570;1.448;2023-01-23T06:59:22;100719.56;;;0.75;100.00
28306;BME280;7516;43.570;1.448;2023-01-23T07:01:49;100736.00;;;0.73;100.00
28306;BME280;7516;43.570;1.448;2023-01-23T07:04:17;100730.84;;;0.73;100.00
28306;BME280;7516;43.570;1.448;2023-01-23T07:06:44;100723.94;;;0.73;100.00
28306;BME280;7516;43.570;1.448;2023-01-23T07:09:12;100731.69;;;0.73;100.00
28306;BME280;7516;43.570;1.448;2023-01-23T07:11:41;100717.97;;;0.73;100.00
28306;BME280;7516;43.570;1.448;2023-01-23T07:14:08;100722.22;;;0.74;100.00
28306;BME280;7516;43.570;1.448;2023-01-23T07:16:36;100728.94;;;0.77;100.00
28306;BME280;7516;43.570;1.448;2023-01-23T07:19:04;100726.28;;;0.78;100.00
28306;BME280;7516;43.570;1.448;2023-01-23T07:21:31;100714.22;;;0.79;100.00
28306;BME280;7516;43.570;1.448;2023-01-23T07:23:59;100717.81;;;0.76;100.00
28306;BME280;7516;43.570;1.448;2023-01-23T07:26:26;100719.47;;;0.77;100.00
28306;BME280;7516;43.570;1.448;2023-01-23T07:28:55;100733.00;;;0.81;100.00
28306;BME280;7516;43.570;1.448;2023-01-23T07:31:23;100725.63;;;0.74;100.00
28306;BME280;7516;43.570;1.448;2023-01-23T07:33:50;100727.28;;;0.75;100.00
28306;BME280;7516;43.570;1.448;2023-01-23T07:36:18;100731.69;;;0.73;100.00
28306;BME280;7516;43.570;1.448;2023-01-23T07:38:45;100733.91;;;0.80;100.00
28306;BME280;7516;43.570;1.448;2023-01-23T07:41:13;100729.44;;;0.83;100.00
28306;BME280;7516;43.570;1.448;2023-01-23T07:43:40;100736.41;;;0.81;100.00
28306;BME280;7516;43.570;1.448;2023-01-23T07:46:09;100735.69;;;0.79;100.00
28306;BME280;7516;43.570;1.448;2023-01-23T07:48:37;100738.16;;;0.81;100.00
28306;BME280;7516;43.570;1.448;2023-01-23T07:51:05;100731.34;;;0.80;100.00
28306;BME280;7516;43.570;1.448;2023-01-23T07:53:33;100743.16;;;0.84;100.00
28306;BME280;7516;43.570;1.448;2023-01-23T07:56:04;100741.34;;;0.86;100.00
28306;BME280;7516;43.570;1.448;2023-01-23T07:58:31;100744.69;;;0.88;100.00
28306;BME280;7516;43.570;1.448;2023-01-23T08:01:05;100747.34;;;0.86;100.00
28306;BME280;7516;43.570;1.448;2023-01-23T08:03:34;100738.75;;;0.86;100.00
28306;BME280;7516;43.570;1.448;2023-01-23T08:06:02;100745.66;;;0.85;100.00
28306;BME280;7516;43.570;1.448;2023-01-23T08:08:29;100733.69;;;0.84;100.00
28306;BME280;7516;43.570;1.448;2023-01-23T08:10:57;100732.84;;;0.84;100.00
28306;BME280;7516;43.570;1.448;2023-01-23T08:13:24;100720.88;;;0.83;100.00
28306;BME280;7516;43.570;1.448;2023-01-23T08:15:52;100723.38;;;0.84;100.00
28306;BME280;7516;43.570;1.448;2023-01-23T08:18:19;100722.81;;;0.79;100.00
28306;BME280;7516;43.570;1.448;2023-01-23T08:20:53;100713.22;;;0.81;100.00
28306;BME280;7516;43.570;1.448;2023-01-23T08:23:24;100712.66;;;0.76;100.00
28306;BME280;7516;43.570;1.448;2023-01-23T08:25:52;100719.63;;;0.74;100.00
28306;BME280;7516;43.570;1.448;2023-01-23T08:28:22;100721.22;;;0.77;100.00
28306;BME280;7516;43.570;1.448;2023-01-23T08:30:50;100723.59;;;0.80;100.00
28306;BME280;7516;43.570;1.448;2023-01-23T08:33:19;100731.19;;;0.83;100.00
28306;BME280;7516;43.570;1.448;2023-01-23T08:35:50;100729.72;;;0.79;100.00
28306;BME280;7516;43.570;1.448;2023-01-23T08:38:19;100738.16;;;0.81;100.00
28306;BME280;7516;43.570;1.448;2023-01-23T08:40:48;100745.00;;;0.82;100.00
28306;BME280;7516;43.570;1.448;2023-01-23T08:43:16;100744.09;;;0.83;100.00
28306;BME280;7516;43.570;1.448;2023-01-23T08:45:47;100738.09;;;0.82;100.00
28306;BME280;7516;43.570;1.448;2023-01-23T08:48:15;100731.09;;;0.84;100.00
28306;BME280;7516;43.570;1.448;2023-01-23T08:50:43;100733.59;;;0.86;100.00
28306;BME280;7516;43.570;1.448;2023-01-23T08:53:11;100729.50;;;0.82;100.00
28306;BME280;7516;43.570;1.448;2023-01-23T08:55:40;100741.16;;;0.89;100.00
28306;BME280;7516;43.570;1.448;2023-01-23T08:58:09;100729.91;;;0.90;100.00
28306;BME280;7516;43.570;1.448;2023-01-23T09:00:38;100726.44;;;0.91;100.00
28306;BME280;7516;43.570;1.448;2023-01-23T09:03:06;100733.25;;;0.92;100.00
28306;BME280;7516;43.570;1.448;2023-01-23T09:05:35;100723.50;;;0.97;100.00
28306;BME280;7516;43.570;1.448;2023-01-23T09:08:02;100734.56;;;0.99;100.00
28306;BME280;7516;43.570;1.448;2023-01-23T09:10:30;100733.81;;;0.97;100.00
28306;BME280;7516;43.570;1.448;2023-01-23T09:12:59;100742.59;;;0.94;100.00
28306;BME280;7516;43.570;1.448;2023-01-23T09:15:27;100742.38;;;0.97;100.00
28306;BME280;7516;43.570;1.448;2023-01-23T09:17:54;100756.53;;;1.06;100.00
28306;BME280;7516;43.570;1.448;2023-01-23T09:20:22;100745.63;;;1.01;100.00
28306;BME280;7516;43.570;1.448;2023-01-23T09:22:51;100748.31;;;0.99;100.00
28306;BME280;7516;43.570;1.448;2023-01-23T09:25:20;100743.13;;;0.99;100.00
28306;BME280;7516;43.570;1.448;2023-01-23T09:27:47;100747.16;;;1.05;100.00
28306;BME280;7516;43.570;1.448;2023-01-23T09:30:17;100746.03;;;1.09;100.00
28306;BME280;7516;43.570;1.448;2023-01-23T09:32:45;100738.31;;;1.09;100.00
28306;BME280;7516;43.570;1.448;2023-01-23T09:35:12;100749.72;;;1.05;100.00
28306;BME280;7516;43.570;1.448;2023-01-23T09:37:40;100753.94;;;1.06;100.00
28306;BME280;7516;43.570;1.448;2023-01-23T09:40:28;100742.16;;;1.02;100.00
28306;BME280;7516;43.570;1.448;2023-01-23T09:42:59;100740.13;;;1.07;100.00
28306;BME280;7516;43.570;1.448;2023-01-23T09:45:30;100747.88;;;1.07;100.00
28306;BME280;7516;43.570;1.448;2023-01-23T09:48:09;100752.13;;;1.08;100.00
28306;BME280;7516;43.570;1.448;2023-01-23T09:50:51;100758.19;;;1.07;100.00
28306;BME280;7516;43.570;1.448;2023-01-23T09:53:22;100752.94;;;1.08;100.00
28306;BME280;7516;43.570;1.448;2023-01-23T09:55:56;100754.13;;;1.03;100.00
28306;BME280;7516;43.570;1.448;2023-01-23T09:58:29;100745.47;;;1.04;100.00
28306;BME280;7516;43.570;1.448;2023-01-23T10:00:59;100752.13;;;1.08;100.00
28306;BME280;7516;43.570;1.448;2023-01-23T10:03:29;100749.38;;;1.11;100.00
28306;BME280;7516;43.570;1.448;2023-01-23T10:06:07;100753.94;;;1.06;100.00
28306;BME280;7516;43.570;1.448;2023-01-23T10:08:47;100759.22;;;1.04;100.00
28306;BME280;7516;43.570;1.448;2023-01-23T10:11:25;100752.19;;;1.06;100.00
28306;BME280;7516;43.570;1.448;2023-01-23T10:14:05;100753.94;;;1.06;100.00
28306;BME280;7516;43.570;1.448;2023-01-23T10:16:53;100757.28;;;1.08;100.00
28306;BME280;7516;43.570;1.448;2023-01-23T10:19:44;100749.44;;;1.09;100.00
28306;BME280;7516;43.570;1.448;2023-01-23T10:22:26;100733.41;;;1.04;100.00
28306;BME280;7516;43.570;1.448;2023-01-23T10:25:02;100735.16;;;1.04;100.00
28306;BME280;7516;43.570;1.448;2023-01-23T10:27:39;100732.75;;;1.01;100.00
28306;BME280;7516;43.570;1.448;2023-01-23T10:30:18;100726.41;;;1.06;100.00
28306;BME280;7516;43.570;1.448;2023-01-23T10:32:51;100714.16;;;1.10;100.00
28306;BME280;7516;43.570;1.448;2023-01-23T10:35:26;100734.25;;;1.05;100.00
28306;BME280;7516;43.570;1.448;2023-01-23T10:38:01;100721.22;;;1.06;100.00
28306;BME280;7516;43.570;1.448;2023-01-23T10:40:31;100717.75;;;1.07;100.00
28306;BME280;7516;43.570;1.448;2023-01-23T10:43:18;100720.25;;;1.09;100.00
28306;BME280;7516;43.570;1.448;2023-01-23T10:45:47;100716.19;;;1.05;100.00
28306;BME280;7516;43.570;1.448;2023-01-23T10:48:37;100716.06;;;1.06;100.00
28306;BME280;7516;43.570;1.448;2023-01-23T10:51:22;100711.59;;;1.10;100.00
28306;BME280;7516;43.570;1.448;2023-01-23T10:56:53;100705.50;;;1.11;100.00
28306;BME280;7516;43.570;1.448;2023-01-23T10:59:27;100699.97;;;1.17;100.00
28306;BME280;7516;43.570;1.448;2023-01-23T11:01:58;100703.47;;;1.16;100.00
28306;BME280;7516;43.570;1.448;2023-01-23T11:04:29;100704.59;;;1.12;100.00
28306;BME280;7516;43.570;1.448;2023-01-23T11:07:05;100706.97;;;1.15;100.00
28306;BME280;7516;43.570;1.448;2023-01-23T11:09:48;100713.81;;;1.16;100.00
28306;BME280;7516;43.570;1.448;2023-01-23T11:12:19;100701.81;;;1.15;100.00
28306;BME280;7516;43.570;1.448;2023-01-23T11:14:47;100694.28;;;1.12;100.00
28306;BME280;7516;43.570;1.448;2023-01-23T11:17:18;100692.44;;;1.14;100.00
28306;BME280;7516;43.570;1.448;2023-01-23T11:19:49;100702.00;;;1.12;100.00
28306;BME280;7516;43.570;1.448;2023-01-23T11:22:28;100696.84;;;1.12;100.00
28306;BME280;7516;43.570;1.448;2023-01-23T11:24:56;100696.56;;;1.17;100.00
28306;BME280;7516;43.570;1.448;2023-01-23T11:27:25;100687.75;;;1.21;100.00
28306;BME280;7516;43.570;1.448;2023-01-23T11:32:57;100688.75;;;1.18;100.00
28306;BME280;7516;43.570;1.448;2023-01-23T11:35:46;100682.00;;;1.16;100.00
28306;BME280;7516;43.570;1.448;2023-01-23T11:38:18;100686.09;;;1.20;100.00
28306;BME280;7516;43.570;1.448;2023-01-23T11:40:49;100688.31;;;1.26;100.00
28306;BME280;7516;43.570;1.448;2023-01-23T11:43:17;100683.06;;;1.27;100.00
28306;BME280;7516;43.570;1.448;2023-01-23T11:46:07;100679.56;;;1.28;100.00
28306;BME280;7516;43.570;1.448;2023-01-23T11:48:57;100678.63;;;1.29;100.00
28306;BME280;7516;43.570;1.448;2023-01-23T11:51:34;100656.50;;;1.25;100.00
28306;BME280;7516;43.570;1.448;2023-01-23T11:54:11;100659.28;;;1.22;100.00
28306;BME280;7516;43.570;1.448;2023-01-23T11:56:55;100661.84;;;1.22;100.00
28306;BME280;7516;43.570;1.448;2023-01-23T12:02:46;100660.50;;;1.31;100.00
28306;BME280;7516;43.570;1.448;2023-01-23T12:08:22;100659.19;;;1.38;100.00
28306;BME280;7516;43.570;1.448;2023-01-23T12:11:01;100639.84;;;1.31;100.00
28306;BME280;7516;43.570;1.448;2023-01-23T12:13:54;100639.00;;;1.30;100.00
28306;BME280;7516;43.570;1.448;2023-01-23T12:16:29;100641.66;;;1.29;100.00
28306;BME280;7516;43.570;1.448;2023-01-23T12:19:12;100636.44;;;1.30;100.00
28306;BME280;7516;43.570;1.448;2023-01-23T12:21:50;100637.34;;;1.29;100.00
28306;BME280;7516;43.570;1.448;2023-01-23T12:24:36;100634.75;;;1.29;100.00
28306;BME280;7516;43.570;1.448;2023-01-23T12:27:15;100623.53;;;1.30;100.00
28306;BME280;7516;43.570;1.448;2023-01-23T12:30:06;100635.69;;;1.28;100.00
28306;BME280;7516;43.570;1.448;2023-01-23T12:32:50;100630.34;;;1.31;100.00
28306;BME280;7516;43.570;1.448;2023-01-23T12:35:32;100615.78;;;1.30;100.00
28306;BME280;7516;43.570;1.448;2023-01-23T12:38:09;100604.63;;;1.30;100.00
28306;BME280;7516;43.570;1.448;2023-01-23T12:40:45;100603.03;;;1.27;100.00
28306;BME280;7516;43.570;1.448;2023-01-23T12:43:18;100597.50;;;1.33;100.00
28306;BME280;7516;43.570;1.448;2023-01-23T12:45:52;100600.84;;;1.35;100.00
28306;BME280;7516;43.570;1.448;2023-01-23T12:48:26;100603.16;;;1.40;100.00
28306;BME280;7516;43.570;1.448;2023-01-23T12:51:00;100597.88;;;1.41;100.00
28306;BME280;7516;43.570;1.448;2023-01-23T12:53:30;100598.69;;;1.42;100.00
28306;BME280;7516;43.570;1.448;2023-01-23T12:56:06;100586.91;;;1.38;100.00
28306;BME280;7516;43.570;1.448;2023-01-23T12:58:40;100583.50;;;1.37;100.00
28306;BME280;7516;43.570;1.448;2023-01-23T13:01:20;100577.97;;;1.43;100.00
28306;BME280;7516;43.570;1.448;2023-01-23T13:04:08;100579.63;;;1.44;100.00
28306;BME280;7516;43.570;1.448;2023-01-23T13:07:00;100581.66;;;1.39;100.00
28306;BME280;7516;43.570;1.448;2023-01-23T13:09:43;100576.69;;;1.36;100.00
28306;BME280;7516;43.570;1.448;2023-01-23T13:12:18;100584.50;;;1.35;100.00
28306;BME280;7516;43.570;1.448;2023-01-23T13:14:47;100570.84;;;1.33;100.00
28306;BME280;7516;43.570;1.448;2023-01-23T13:17:35;100566.34;;;1.36;100.00
28306;BME280;7516;43.570;1.448;2023-01-23T13:20:19;100575.38;;;1.43;100.00
28306;BME280;7516;43.570;1.448;2023-01-23T13:23:28;100576.31;;;1.42;100.00
28306;BME280;7516;43.570;1.448;2023-01-23T13:29:03;100593.66;;;1.40;100.00
28306;BME280;7516;43.570;1.448;2023-01-23T13:31:43;100593.44;;;1.43;100.00
28306;BME280;7516;43.570;1.448;2023-01-23T13:34:33;100594.13;;;1.47;100.00
28306;BME280;7516;43.570;1.448;2023-01-23T13:37:41;100590.78;;;1.45;100.00
28306;BME280;7516;43.570;1.448;2023-01-23T13:40:18;100587.38;;;1.44;100.00